createdAt,value
2022-09-05T00:00:17.569Z,0.00
2022-09-05T00:01:17.493Z,0.00
2022-09-05T00:02:17.413Z,0.00
2022-09-05T00:03:17.452Z,0.00
2022-09-05T00:04:25.297Z,0.00
2022-09-05T00:05:17.184Z,0.00
2022-09-05T00:06:17.109Z,0.00
2022-09-05T00:07:31.205Z,0.00
2022-09-05T00:08:16.953Z,0.00
2022-09-05T00:09:16.876Z,0.00
2022-09-05T00:10:16.797Z,0.00
2022-09-05T00:11:41.105Z,0.00
2022-09-05T00:12:16.649Z,0.00
2022-09-05T00:13:16.569Z,0.00
2022-09-05T00:14:16.523Z,0.00
2022-09-05T00:15:19.012Z,0.00
2022-09-05T00:16:16.403Z,0.00
2022-09-05T00:17:16.262Z,0.00
2022-09-05T00:23:57.154Z,0.00
2022-09-05T00:24:17.009Z,0.00
2022-09-05T00:24:18.889Z,0.00
2022-09-05T00:24:28.427Z,0.00
2022-09-05T00:24:29.217Z,0.00
2022-09-05T00:24:29.711Z,0.00
2022-09-05T00:24:32.506Z,0.00
2022-09-05T00:25:32.303Z,0.00
2022-09-05T00:26:15.573Z,0.00
2022-09-05T00:27:15.499Z,0.00
2022-09-05T00:28:25.899Z,0.00
2022-09-05T00:29:16.268Z,0.00
2022-09-05T00:31:51.011Z,0.00
2022-09-05T00:31:55.385Z,0.00
2022-09-05T00:32:15.137Z,0.00
2022-09-05T00:33:27.100Z,0.00
2022-09-05T00:34:14.957Z,0.00
2022-09-05T00:35:14.880Z,0.00
2022-09-05T00:36:14.806Z,0.00
2022-09-05T00:37:14.728Z,0.00
2022-09-05T00:38:14.654Z,0.00
2022-09-05T00:39:14.569Z,0.00
2022-09-05T00:40:18.664Z,0.00
2022-09-05T00:41:14.423Z,0.00
2022-09-05T00:42:14.340Z,0.00
2022-09-05T00:43:14.263Z,0.00
2022-09-05T00:44:14.188Z,0.00
2022-09-05T00:45:14.560Z,0.00
2022-09-05T00:46:14.047Z,0.00
2022-09-05T00:47:13.959Z,0.00
2022-09-05T00:48:13.881Z,0.00
2022-09-05T00:49:13.800Z,0.00
2022-09-05T00:50:13.726Z,0.00
2022-09-05T00:51:13.657Z,0.00
2022-09-05T00:52:13.570Z,0.00
2022-09-05T00:53:13.495Z,0.00
2022-09-05T00:54:13.420Z,0.00
2022-09-05T00:55:13.342Z,0.00
2022-09-05T00:56:13.264Z,0.00
2022-09-05T00:57:13.188Z,0.00
2022-09-05T00:58:13.114Z,0.00
2022-09-05T00:59:13.032Z,0.00
2022-09-05T01:00:17.316Z,0.00
2022-09-05T01:01:21.345Z,0.00
2022-09-05T01:02:12.876Z,0.00
2022-09-05T01:03:12.827Z,0.00
2022-09-05T01:04:12.650Z,0.00
2022-09-05T01:05:12.573Z,0.00
2022-09-05T01:06:12.494Z,0.00
2022-09-05T01:07:12.413Z,0.00
2022-09-05T01:08:12.341Z,0.00
2022-09-05T01:09:12.258Z,0.00
2022-09-05T01:10:12.183Z,0.00
2022-09-05T01:11:12.108Z,0.00
2022-09-05T01:12:12.032Z,0.00
2022-09-05T01:13:11.952Z,0.00
2022-09-05T01:14:12.961Z,0.00
2022-09-05T01:15:11.796Z,0.00
2022-09-05T01:16:11.812Z,0.00
2022-09-05T01:17:11.643Z,0.00
2022-09-05T01:18:11.571Z,0.00
2022-09-05T01:19:16.031Z,0.00
2022-09-05T01:20:19.159Z,0.00
2022-09-05T01:21:11.338Z,0.00
2022-09-05T01:22:11.260Z,0.00
2022-09-05T01:23:11.186Z,0.00
2022-09-05T01:24:11.114Z,0.00
2022-09-05T01:25:11.034Z,0.00
2022-09-05T01:26:10.954Z,0.00
2022-09-05T01:27:12.165Z,0.00
2022-09-05T01:29:14.019Z,0.00
2022-09-05T01:29:18.037Z,0.00
2022-09-05T01:30:10.646Z,0.00
2022-09-05T01:31:10.626Z,0.00
2022-09-05T01:32:10.489Z,0.00
2022-09-05T01:33:10.413Z,0.00
2022-09-05T01:34:10.333Z,0.00
2022-09-05T01:35:10.251Z,0.00
2022-09-05T01:36:10.178Z,0.00
2022-09-05T01:37:24.777Z,0.00
2022-09-05T01:38:10.022Z,0.00
2022-09-05T01:40:10.616Z,0.00
2022-09-05T01:40:11.293Z,0.00
2022-09-05T01:41:19.144Z,0.00
2022-09-05T01:42:09.713Z,0.00
2022-09-05T01:43:09.639Z,0.00
2022-09-05T01:44:09.564Z,0.00
2022-09-05T01:45:09.484Z,0.00
2022-09-05T01:46:11.552Z,0.00
2022-09-05T01:47:09.650Z,0.00
2022-09-05T01:48:09.254Z,0.00
2022-09-05T01:49:09.180Z,0.00
2022-09-05T01:50:09.097Z,0.00
2022-09-05T01:51:09.915Z,0.00
2022-09-05T01:52:08.944Z,0.00
2022-09-05T01:53:08.871Z,0.00
2022-09-05T01:54:14.795Z,0.00
2022-09-05T01:55:08.713Z,0.00
2022-09-05T01:56:11.208Z,0.00
2022-09-05T01:57:08.562Z,0.00
2022-09-05T01:58:08.478Z,0.00
2022-09-05T01:59:08.419Z,0.00
2022-09-05T02:00:08.329Z,0.00
2022-09-05T02:01:25.260Z,0.00
2022-09-05T02:02:08.337Z,0.00
2022-09-05T02:03:08.131Z,0.00
2022-09-05T02:04:08.017Z,0.00
2022-09-05T02:05:07.942Z,0.00
2022-09-05T02:06:07.858Z,0.00
2022-09-05T02:07:15.234Z,0.00
2022-09-05T02:08:07.706Z,0.00
2022-09-05T02:09:07.632Z,0.00
2022-09-05T02:10:07.846Z,0.00
2022-09-05T02:11:07.477Z,0.00
2022-09-05T02:12:07.397Z,0.00
2022-09-05T02:13:07.321Z,0.00
2022-09-05T02:14:07.242Z,0.00
2022-09-05T02:15:07.167Z,0.00
2022-09-05T02:16:07.146Z,0.00
2022-09-05T02:17:07.011Z,0.00
2022-09-05T02:18:06.935Z,0.00
2022-09-05T02:19:06.856Z,0.00
2022-09-05T02:20:06.776Z,0.00
2022-09-05T02:21:06.703Z,0.00
2022-09-05T02:22:06.623Z,0.00
2022-09-05T02:23:24.820Z,0.00
2022-09-05T02:24:06.467Z,0.00
2022-09-05T02:25:33.872Z,0.00
2022-09-05T02:26:06.313Z,0.00
2022-09-05T02:27:06.232Z,0.00
2022-09-05T02:28:06.333Z,0.00
2022-09-05T02:29:06.082Z,0.00
2022-09-05T02:30:06.003Z,0.00
2022-09-05T02:31:19.793Z,0.00
2022-09-05T02:32:05.846Z,0.00
2022-09-05T02:33:05.779Z,0.00
2022-09-05T02:34:05.693Z,0.00
2022-09-05T02:35:05.612Z,0.00
2022-09-05T02:36:05.535Z,0.00
2022-09-05T02:37:05.457Z,0.00
2022-09-05T02:39:51.948Z,0.00
2022-09-05T02:42:40.441Z,0.00
2022-09-05T02:45:07.123Z,0.00
2022-09-05T02:45:11.604Z,0.00
2022-09-05T02:45:14.074Z,0.00
2022-09-05T02:45:17.000Z,0.00
2022-09-05T02:45:19.503Z,0.00
2022-09-05T02:45:25.674Z,0.00
2022-09-05T02:46:04.839Z,0.00
2022-09-05T02:47:04.746Z,0.00
2022-09-05T02:48:15.594Z,0.00
2022-09-05T02:49:07.750Z,0.00
2022-09-05T02:52:38.142Z,0.00
2022-09-05T02:57:23.317Z,0.00
2022-09-05T02:57:27.015Z,0.00
2022-09-05T02:57:27.164Z,0.00
2022-09-05T02:57:36.525Z,0.00
2022-09-05T02:57:36.861Z,0.00
2022-09-05T02:57:38.793Z,0.00
2022-09-05T02:57:40.977Z,0.00
2022-09-05T02:58:06.056Z,0.00
2022-09-05T02:59:09.923Z,0.00
2022-09-05T03:00:03.680Z,0.00
2022-09-05T03:01:03.654Z,0.00
2022-09-05T03:02:09.328Z,0.00
2022-09-05T03:03:03.467Z,0.00
2022-09-05T03:04:03.372Z,0.00
2022-09-05T03:05:04.787Z,0.00
2022-09-05T03:06:03.219Z,0.00
2022-09-05T03:07:03.142Z,0.00
2022-09-05T03:08:03.061Z,0.00
2022-09-05T03:09:09.710Z,0.00
2022-09-05T03:10:02.908Z,0.00
2022-09-05T03:11:02.828Z,0.00
2022-09-05T03:12:03.033Z,0.00
2022-09-05T03:13:02.668Z,0.00
2022-09-05T03:14:02.593Z,0.00
2022-09-05T03:15:02.518Z,0.00
2022-09-05T03:16:04.734Z,0.00
2022-09-05T03:17:02.437Z,0.00
2022-09-05T03:18:20.892Z,0.00
2022-09-05T03:19:02.211Z,0.00
2022-09-05T03:20:02.130Z,0.00
2022-09-05T03:21:09.244Z,0.00
2022-09-05T03:22:01.977Z,0.00
2022-09-05T03:23:01.900Z,0.00
2022-09-05T03:24:01.825Z,0.00
2022-09-05T03:25:01.742Z,0.00
2022-09-05T03:26:01.662Z,0.00
2022-09-05T03:27:01.589Z,0.00
2022-09-05T03:28:01.509Z,0.00
2022-09-05T03:29:01.436Z,0.00
2022-09-05T03:30:01.351Z,0.00
2022-09-05T03:31:01.295Z,0.00
2022-09-05T03:32:01.201Z,0.00
2022-09-05T03:33:01.117Z,0.00
2022-09-05T03:34:01.043Z,0.00
2022-09-05T03:35:03.119Z,0.00
2022-09-05T03:36:00.892Z,0.00
2022-09-05T03:37:00.808Z,0.00
2022-09-05T03:38:00.732Z,0.00
2022-09-05T03:39:00.657Z,0.00
2022-09-05T03:40:00.776Z,0.00
2022-09-05T03:41:00.495Z,0.00
2022-09-05T03:42:00.420Z,0.00
2022-09-05T03:43:00.342Z,0.00
2022-09-05T03:44:00.266Z,0.00
2022-09-05T03:45:00.193Z,0.00
2022-09-05T03:46:00.139Z,0.00
2022-09-05T03:47:00.033Z,0.00
2022-09-05T03:48:03.654Z,0.00
2022-09-05T03:49:04.149Z,0.00
2022-09-05T03:52:38.121Z,0.00
2022-09-05T03:57:07.291Z,0.00
2022-09-05T03:57:12.924Z,0.00
2022-09-05T03:57:13.844Z,0.00
2022-09-05T03:57:15.841Z,0.00
2022-09-05T03:57:16.383Z,0.00
2022-09-05T03:57:18.607Z,0.00
2022-09-05T03:57:24.630Z,0.00
2022-09-05T03:58:02.182Z,0.00
2022-09-05T03:58:59.556Z,0.00
2022-09-05T03:59:59.023Z,0.00
2022-09-05T04:00:59.990Z,0.00
2022-09-05T04:04:24.774Z,0.00
2022-09-05T04:08:05.952Z,0.00
2022-09-05T04:08:10.062Z,0.00
2022-09-05T04:08:16.456Z,0.00
2022-09-05T04:08:19.032Z,0.00
2022-09-05T04:08:23.790Z,0.00
2022-09-05T04:08:30.912Z,0.00
2022-09-05T04:08:58.409Z,4.00
2022-09-05T04:09:58.365Z,0.00
2022-09-05T04:10:58.240Z,0.00
2022-09-05T04:11:58.091Z,0.00
2022-09-05T04:12:58.016Z,4.00
2022-09-05T04:13:57.934Z,0.00
2022-09-05T04:14:57.856Z,4.00
2022-09-05T04:15:57.779Z,4.00
2022-09-05T04:16:57.750Z,4.00
2022-09-05T04:18:03.943Z,4.00
2022-09-05T04:18:57.547Z,4.00
2022-09-05T04:19:57.473Z,4.00
2022-09-05T04:20:57.394Z,8.00
2022-09-05T04:21:57.317Z,12.00
2022-09-05T04:22:57.234Z,16.00
2022-09-05T04:23:57.156Z,16.00
2022-09-05T04:24:57.085Z,16.00
2022-09-05T04:26:11.138Z,20.00
2022-09-05T04:26:56.929Z,24.00
2022-09-05T04:27:56.847Z,28.00
2022-09-05T04:28:56.770Z,32.00
2022-09-05T04:29:56.702Z,36.00
2022-09-05T04:30:56.619Z,40.00
2022-09-05T04:32:17.445Z,48.00
2022-09-05T04:32:56.491Z,48.00
2022-09-05T04:33:56.379Z,56.00
2022-09-05T04:34:56.312Z,64.00
2022-09-05T04:35:56.228Z,68.00
2022-09-05T04:36:56.151Z,76.00
2022-09-05T04:37:56.071Z,80.00
2022-09-05T04:38:55.994Z,84.00
2022-09-05T04:39:55.976Z,92.00
2022-09-05T04:40:55.839Z,100.00
2022-09-05T04:41:55.755Z,108.00
2022-09-05T04:42:55.682Z,120.00
2022-09-05T04:43:55.604Z,128.00
2022-09-05T04:44:55.823Z,136.00
2022-09-05T04:45:55.476Z,140.00
2022-09-05T04:46:55.370Z,148.00
2022-09-05T04:47:55.293Z,156.00
2022-09-05T04:48:55.217Z,164.00
2022-09-05T04:49:55.134Z,176.00
2022-09-05T04:50:55.063Z,184.00
2022-09-05T04:51:59.984Z,192.00
2022-09-05T04:52:54.904Z,200.00
2022-09-05T04:53:54.823Z,208.00
2022-09-05T04:54:54.749Z,220.00
2022-09-05T04:55:54.666Z,228.00
2022-09-05T04:56:54.599Z,236.00
2022-09-05T04:57:54.514Z,244.00
2022-09-05T05:01:32.493Z,252.00
2022-09-05T05:05:59.243Z,260.00
2022-09-05T05:06:00.912Z,268.00
2022-09-05T05:06:08.910Z,300.00
2022-09-05T05:06:10.663Z,288.00
2022-09-05T05:06:11.234Z,292.00
2022-09-05T05:06:14.078Z,308.00
2022-09-05T05:06:17.757Z,276.00
2022-09-05T05:06:53.927Z,316.00
2022-09-05T05:07:53.875Z,324.00
2022-09-05T05:08:53.703Z,332.00
2022-09-05T05:10:08.450Z,336.00
2022-09-05T05:16:13.506Z,344.00
2022-09-05T05:17:55.651Z,364.00
2022-09-05T05:17:56.266Z,352.00
2022-09-05T05:18:01.114Z,360.00
2022-09-05T05:18:10.724Z,380.00
2022-09-05T05:18:13.923Z,388.00
2022-09-05T05:18:14.074Z,396.00
2022-09-05T05:18:15.785Z,372.00
2022-09-05T05:19:03.607Z,400.00
2022-09-05T05:19:56.426Z,408.00
2022-09-05T05:20:52.860Z,416.00
2022-09-05T05:21:52.651Z,424.00
2022-09-05T05:22:52.567Z,436.00
2022-09-05T05:23:52.492Z,440.00
2022-09-05T05:24:52.414Z,448.00
2022-09-05T05:25:52.332Z,460.00
2022-09-05T05:26:56.683Z,468.00
2022-09-05T05:27:52.174Z,480.00
2022-09-05T05:28:52.103Z,488.00
2022-09-05T05:29:52.020Z,500.00
2022-09-05T05:30:51.944Z,508.00
2022-09-05T05:31:51.940Z,516.00
2022-09-05T05:32:51.796Z,524.00
2022-09-05T05:33:51.706Z,536.00
2022-09-05T05:34:51.630Z,544.00
2022-09-05T05:35:51.569Z,552.00
2022-09-05T05:36:51.482Z,564.00
2022-09-05T05:37:51.400Z,572.00
2022-09-05T05:38:51.324Z,580.00
2022-09-05T05:39:51.278Z,592.00
2022-09-05T05:40:51.529Z,596.00
2022-09-05T05:41:51.093Z,608.00
2022-09-05T05:42:51.011Z,616.00
2022-09-05T05:43:50.932Z,624.00
2022-09-05T05:44:50.857Z,632.00
2022-09-05T05:45:50.795Z,644.00
2022-09-05T05:46:50.700Z,648.00
2022-09-05T05:47:50.620Z,648.00
2022-09-05T05:48:57.017Z,656.00
2022-09-05T05:49:50.467Z,664.00
2022-09-05T05:50:50.389Z,668.00
2022-09-05T05:52:02.083Z,676.00
2022-09-05T05:52:50.237Z,680.00
2022-09-05T05:53:52.378Z,688.00
2022-09-05T05:54:50.481Z,696.00
2022-09-05T05:55:52.487Z,696.00
2022-09-05T05:56:49.922Z,700.00
2022-09-05T05:57:49.845Z,708.00
2022-09-05T05:58:49.767Z,712.00
2022-09-05T05:59:56.419Z,720.00
2022-09-05T06:00:51.971Z,720.00
2022-09-05T06:01:49.699Z,724.00
2022-09-05T06:02:58.688Z,728.00
2022-09-05T06:03:49.489Z,732.00
2022-09-05T06:04:49.302Z,740.00
2022-09-05T06:05:49.227Z,740.00
2022-09-05T06:06:49.152Z,748.00
2022-09-05T06:09:09.327Z,752.00
2022-09-05T06:14:49.449Z,768.00
2022-09-05T06:14:49.504Z,764.00
2022-09-05T06:14:52.691Z,760.00
2022-09-05T06:14:56.250Z,772.00
2022-09-05T06:14:59.312Z,776.00
2022-09-05T06:15:06.636Z,780.00
2022-09-05T06:15:08.534Z,784.00
2022-09-05T06:15:48.452Z,788.00
2022-09-05T06:16:48.458Z,796.00
2022-09-05T06:17:48.298Z,804.00
2022-09-05T06:18:48.215Z,804.00
2022-09-05T06:21:44.133Z,808.00
2022-09-05T06:22:07.167Z,816.00
2022-09-05T06:22:08.553Z,812.00
2022-09-05T06:22:47.905Z,820.00
2022-09-05T06:23:47.831Z,828.00
2022-09-05T06:24:47.753Z,832.00
2022-09-05T06:25:47.679Z,836.00
2022-09-05T06:26:47.593Z,844.00
2022-09-05T06:28:17.581Z,844.00
2022-09-05T06:28:47.438Z,852.00
2022-09-05T06:29:47.411Z,856.00
2022-09-05T06:30:47.286Z,856.00
2022-09-05T06:31:47.244Z,860.00
2022-09-05T06:32:56.841Z,864.00
2022-09-05T06:33:47.062Z,872.00
2022-09-05T06:34:46.973Z,876.00
2022-09-05T06:35:46.901Z,880.00
2022-09-05T06:36:46.822Z,888.00
2022-09-05T06:37:46.749Z,888.00
2022-09-05T06:38:46.667Z,892.00
2022-09-05T06:39:47.977Z,892.00
2022-09-05T06:40:46.516Z,900.00
2022-09-05T06:41:46.433Z,896.00
2022-09-05T06:42:46.358Z,904.00
2022-09-05T06:43:46.280Z,908.00
2022-09-05T06:44:46.205Z,912.00
2022-09-05T06:45:46.596Z,916.00
2022-09-05T06:47:22.096Z,920.00
2022-09-05T06:47:46.040Z,924.00
2022-09-05T06:49:30.143Z,928.00
2022-09-05T06:49:46.263Z,932.00
2022-09-05T06:51:02.031Z,936.00
2022-09-05T06:51:46.421Z,940.00
2022-09-05T06:52:45.590Z,944.00
2022-09-05T06:53:45.506Z,948.00
2022-09-05T06:54:47.179Z,948.00
2022-09-05T06:55:45.357Z,952.00
2022-09-05T06:56:45.276Z,952.00
2022-09-05T06:57:45.200Z,956.00
2022-09-05T06:58:45.122Z,964.00
2022-09-05T06:59:45.050Z,964.00
2022-09-05T07:00:45.041Z,968.00
2022-09-05T07:02:00.275Z,968.00
2022-09-05T07:02:58.978Z,976.00
2022-09-05T07:03:44.754Z,972.00
2022-09-05T07:05:23.260Z,980.00
2022-09-05T07:05:45.650Z,984.00
2022-09-05T07:07:01.589Z,984.00
2022-09-05T07:07:46.061Z,984.00
2022-09-05T07:08:44.366Z,984.00
2022-09-05T07:09:44.280Z,988.00
2022-09-05T07:10:44.199Z,996.00
2022-09-05T07:11:44.125Z,1000.00
2022-09-05T07:12:44.047Z,1000.00
2022-09-05T07:13:44.563Z,1004.00
2022-09-05T07:14:43.891Z,1008.00
2022-09-05T07:15:43.813Z,1016.00
2022-09-05T07:16:43.790Z,1020.00
2022-09-05T07:18:08.576Z,1024.00
2022-09-05T07:18:43.585Z,1024.00
2022-09-05T07:19:43.507Z,1028.00
2022-09-05T07:21:06.727Z,1036.00
2022-09-05T07:21:44.366Z,1044.00
2022-09-05T07:22:48.427Z,1044.00
2022-09-05T07:24:08.978Z,1048.00
2022-09-05T07:24:54.656Z,1052.00
2022-09-05T07:25:43.049Z,1064.00
2022-09-05T07:26:51.795Z,1076.00
2022-09-05T07:28:26.235Z,1080.00
2022-09-05T07:28:42.822Z,1092.00
2022-09-05T07:29:49.699Z,1100.00
2022-09-05T07:30:42.665Z,1116.00
2022-09-05T07:31:42.647Z,1128.00
2022-09-05T07:32:42.520Z,1136.00
2022-09-05T07:33:42.453Z,1152.00
2022-09-05T07:34:42.362Z,1164.00
2022-09-05T07:35:42.764Z,1176.00
2022-09-05T07:36:42.211Z,1192.00
2022-09-05T07:37:42.136Z,1208.00
2022-09-05T07:38:52.509Z,1228.00
2022-09-05T07:39:42.013Z,1240.00
2022-09-05T07:40:41.926Z,1256.00
2022-09-05T07:41:41.830Z,1276.00
2022-09-05T07:42:41.749Z,1292.00
2022-09-05T07:43:41.674Z,1312.00
2022-09-05T07:44:41.596Z,1324.00
2022-09-05T07:45:46.470Z,1344.00
2022-09-05T07:46:41.441Z,1364.00
2022-09-05T07:47:41.366Z,1384.00
2022-09-05T07:48:41.293Z,1400.00
2022-09-05T07:49:50.557Z,1416.00
2022-09-05T07:55:12.383Z,1440.00
2022-09-05T07:56:49.059Z,1476.00
2022-09-05T07:56:49.428Z,1496.00
2022-09-05T07:56:50.567Z,1460.00
2022-09-05T07:56:51.279Z,1560.00
2022-09-05T07:57:05.169Z,1512.00
2022-09-05T07:57:10.216Z,1536.00
2022-09-05T07:57:51.173Z,1576.00
2022-09-05T07:58:40.529Z,1604.00
2022-09-05T07:59:40.458Z,1624.00
2022-09-05T08:00:40.415Z,1644.00
2022-09-05T08:01:40.305Z,1664.00
2022-09-05T08:02:45.374Z,1676.00
2022-09-05T08:03:40.155Z,1692.00
2022-09-05T08:04:40.148Z,1708.00
2022-09-05T08:06:07.878Z,1708.00
2022-09-05T08:07:34.386Z,1712.00
2022-09-05T08:07:49.137Z,1712.00
2022-09-05T08:08:39.774Z,1692.00
2022-09-05T08:10:05.435Z,1692.00
2022-09-05T08:11:23.245Z,1692.00
2022-09-05T08:11:39.546Z,1688.00
2022-09-05T08:13:22.981Z,1656.00
2022-09-05T08:13:39.686Z,1660.00
2022-09-05T08:14:45.433Z,1632.00
2022-09-05T08:16:10.763Z,1628.00
2022-09-05T08:16:39.205Z,1624.00
2022-09-05T08:17:39.094Z,1620.00
2022-09-05T08:18:42.530Z,1612.00
2022-09-05T08:19:38.943Z,1624.00
2022-09-05T08:20:38.869Z,1628.00
2022-09-05T08:21:40.107Z,1644.00
2022-09-05T08:22:38.716Z,1652.00
2022-09-05T08:23:38.640Z,1640.00
2022-09-05T08:24:38.566Z,1648.00
2022-09-05T08:25:57.625Z,1648.00
2022-09-05T08:26:38.417Z,1608.00
2022-09-05T08:27:38.339Z,1616.00
2022-09-05T08:28:39.246Z,1624.00
2022-09-05T08:29:38.190Z,1632.00
2022-09-05T08:30:38.112Z,1644.00
2022-09-05T08:31:40.933Z,1680.00
2022-09-05T08:32:37.962Z,1708.00
2022-09-05T08:33:37.886Z,1728.00
2022-09-05T08:34:44.996Z,1724.00
2022-09-05T08:35:37.736Z,1744.00
2022-09-05T08:36:37.662Z,1752.00
2022-09-05T08:37:37.585Z,1808.00
2022-09-05T08:38:40.837Z,1820.00
2022-09-05T08:39:37.469Z,1828.00
2022-09-05T08:40:37.364Z,1868.00
2022-09-05T08:41:49.348Z,1892.00
2022-09-05T08:42:37.618Z,1912.00
2022-09-05T08:46:40.995Z,1968.00
2022-09-05T08:46:42.972Z,1980.00
2022-09-05T08:46:47.735Z,1944.00
2022-09-05T08:46:49.185Z,1980.00
2022-09-05T08:47:45.790Z,1972.00
2022-09-05T08:48:36.761Z,2008.00
2022-09-05T08:49:38.776Z,2020.00
2022-09-05T08:50:36.608Z,2048.00
2022-09-05T08:51:36.534Z,2072.00
2022-09-05T08:52:36.464Z,2092.00
2022-09-05T08:53:46.096Z,2080.00
2022-09-05T08:54:36.308Z,2116.00
2022-09-05T08:55:36.238Z,2124.00
2022-09-05T08:56:36.164Z,2160.00
2022-09-05T08:57:36.089Z,2168.00
2022-09-05T08:58:36.009Z,2188.00
2022-09-05T08:59:35.937Z,2204.00
2022-09-05T09:00:35.951Z,2204.00
2022-09-05T09:02:11.590Z,2208.00
2022-09-05T09:02:47.685Z,2216.00
2022-09-05T09:03:35.663Z,2224.00
2022-09-05T09:05:00.717Z,2244.00
2022-09-05T09:06:11.827Z,2252.00
2022-09-05T09:06:35.416Z,2248.00
2022-09-05T09:07:50.535Z,2252.00
2022-09-05T09:08:35.276Z,2256.00
2022-09-05T09:09:35.190Z,2232.00
2022-09-05T09:10:35.113Z,2228.00
2022-09-05T09:11:36.697Z,2200.00
2022-09-05T09:12:34.967Z,2168.00
2022-09-05T09:13:35.071Z,2144.00
2022-09-05T09:14:34.819Z,2148.00
2022-09-05T09:15:34.743Z,2152.00
2022-09-05T09:16:34.779Z,2136.00
2022-09-05T09:17:34.594Z,2152.00
2022-09-05T09:18:36.100Z,2164.00
2022-09-05T09:19:34.446Z,2200.00
2022-09-05T09:20:34.375Z,2212.00
2022-09-05T09:21:34.299Z,2200.00
2022-09-05T09:22:34.224Z,2192.00
2022-09-05T09:23:34.258Z,2204.00
2022-09-05T09:24:34.079Z,2212.00
2022-09-05T09:25:34.300Z,2220.00
2022-09-05T09:26:33.929Z,2232.00
2022-09-05T09:28:40.788Z,2240.00
2022-09-05T09:28:47.803Z,2240.00
2022-09-05T09:29:33.703Z,2252.00
2022-09-05T09:30:33.626Z,2244.00
2022-09-05T09:31:33.619Z,2208.00
2022-09-05T09:32:33.540Z,2176.00
2022-09-05T09:33:33.407Z,2132.00
2022-09-05T09:34:36.725Z,2052.00
2022-09-05T09:35:33.261Z,2004.00
2022-09-05T09:36:33.185Z,1948.00
2022-09-05T09:37:51.734Z,1932.00
2022-09-05T09:38:33.041Z,1936.00
2022-09-05T09:39:38.204Z,1928.00
2022-09-05T09:40:32.891Z,1892.00
2022-09-05T09:41:32.814Z,1872.00
2022-09-05T09:42:34.132Z,1864.00
2022-09-05T09:43:32.666Z,1856.00
2022-09-05T09:44:32.594Z,1840.00
2022-09-05T09:45:32.518Z,1844.00
2022-09-05T09:46:32.476Z,1848.00
2022-09-05T09:47:32.372Z,1844.00
2022-09-05T09:48:32.296Z,1864.00
2022-09-05T09:49:32.219Z,1924.00
2022-09-05T09:50:32.151Z,1984.00
2022-09-05T09:51:32.075Z,2052.00
2022-09-05T09:52:32.004Z,2100.00
2022-09-05T09:53:36.896Z,2116.00
2022-09-05T09:54:31.858Z,2124.00
2022-09-05T09:55:31.777Z,2164.00
2022-09-05T09:56:31.708Z,2180.00
2022-09-05T09:57:31.631Z,2172.00
2022-09-05T09:58:32.590Z,2196.00
2022-09-05T09:59:31.485Z,2176.00
2022-09-05T10:00:31.412Z,2140.00
2022-09-05T10:01:35.989Z,2120.00
2022-09-05T10:03:47.085Z,2092.00
2022-09-05T10:07:31.785Z,2076.00
2022-09-05T10:10:37.856Z,2012.00
2022-09-05T10:10:47.755Z,1864.00
2022-09-05T10:10:48.841Z,1916.00
2022-09-05T10:10:52.404Z,1968.00
2022-09-05T10:10:52.714Z,1820.00
2022-09-05T10:11:09.108Z,2060.00
2022-09-05T10:11:23.797Z,1828.00
2022-09-05T10:11:52.995Z,1828.00
2022-09-05T10:12:30.536Z,1840.00
2022-09-05T10:13:30.450Z,1856.00
2022-09-05T10:14:47.868Z,1836.00
2022-09-05T10:15:32.482Z,1852.00
2022-09-05T10:16:30.301Z,1864.00
2022-09-05T10:17:30.158Z,1868.00
2022-09-05T10:18:31.626Z,1888.00
2022-09-05T10:20:29.940Z,1928.00
2022-09-05T10:21:29.863Z,1956.00
2022-09-05T10:22:37.785Z,1960.00
2022-09-05T10:23:29.716Z,1952.00
2022-09-05T10:24:29.649Z,1964.00
2022-09-05T10:25:29.571Z,1968.00
2022-09-05T10:26:29.498Z,1972.00
2022-09-05T10:27:29.421Z,1996.00
2022-09-05T10:28:29.349Z,2012.00
2022-09-05T10:29:37.541Z,2032.00
2022-09-05T10:31:22.096Z,2060.00
2022-09-05T10:33:52.643Z,2060.00
2022-09-05T10:35:04.548Z,2088.00
2022-09-05T10:35:17.913Z,2136.00
2022-09-05T10:35:19.948Z,2172.00
2022-09-05T10:35:29.517Z,2236.00
2022-09-05T10:36:28.863Z,2316.00
2022-09-05T10:37:28.687Z,2368.00
2022-09-05T10:38:28.615Z,2352.00
2022-09-05T10:39:28.580Z,2332.00
2022-09-05T10:40:28.470Z,2268.00
2022-09-05T10:41:28.393Z,2184.00
2022-09-05T10:42:28.325Z,2152.00
2022-09-05T10:43:28.252Z,2104.00
2022-09-05T10:44:28.177Z,2064.00
2022-09-05T10:45:38.219Z,2032.00
2022-09-05T10:46:49.622Z,1992.00
2022-09-05T10:47:28.041Z,1964.00
2022-09-05T10:48:27.886Z,1896.00
2022-09-05T10:49:30.308Z,1884.00
2022-09-05T10:50:27.740Z,1844.00
2022-09-05T10:51:28.367Z,1976.00
2022-09-05T10:52:27.594Z,2036.00
2022-09-05T10:53:28.445Z,2068.00
2022-09-05T10:54:27.451Z,2072.00
2022-09-05T10:55:27.373Z,2068.00
2022-09-05T10:56:28.707Z,2084.00
2022-09-05T10:57:27.229Z,2100.00
2022-09-05T10:58:46.281Z,2140.00
2022-09-05T11:02:16.356Z,2124.00
2022-09-05T11:02:20.687Z,2092.00
2022-09-05T11:02:21.751Z,2104.00
2022-09-05T11:02:34.071Z,2072.00
2022-09-05T11:03:26.976Z,2064.00
2022-09-05T11:04:26.720Z,2080.00
2022-09-05T11:05:26.731Z,2096.00
2022-09-05T11:06:26.571Z,2076.00
2022-09-05T11:07:29.769Z,2072.00
2022-09-05T11:08:26.431Z,2060.00
2022-09-05T11:09:26.355Z,2056.00
2022-09-05T11:10:26.281Z,2052.00
2022-09-05T11:11:34.875Z,2076.00
2022-09-05T11:12:26.139Z,2096.00
2022-09-05T11:13:26.179Z,2080.00
2022-09-05T11:14:26.838Z,2084.00
2022-09-05T11:15:25.915Z,2100.00
2022-09-05T11:16:25.876Z,2132.00
2022-09-05T11:17:25.774Z,2148.00
2022-09-05T11:18:27.119Z,2152.00
2022-09-05T11:19:25.626Z,2176.00
2022-09-05T11:20:34.765Z,2192.00
2022-09-05T11:21:25.480Z,2196.00
2022-09-05T11:22:25.415Z,2220.00
2022-09-05T11:23:25.397Z,2252.00
2022-09-05T11:24:27.350Z,2284.00
2022-09-05T11:25:39.946Z,2300.00
2022-09-05T11:26:25.124Z,2316.00
2022-09-05T11:27:25.976Z,2360.00
2022-09-05T11:28:24.978Z,2380.00
2022-09-05T11:29:24.905Z,2384.00
2022-09-05T11:30:29.785Z,2388.00
2022-09-05T11:31:24.845Z,2372.00
2022-09-05T11:36:44.320Z,2392.00
2022-09-05T11:39:35.150Z,2420.00
2022-09-05T11:39:51.297Z,2464.00
2022-09-05T11:39:54.295Z,2596.00
2022-09-05T11:39:58.552Z,2504.00
2022-09-05T11:40:03.914Z,2532.00
2022-09-05T11:40:04.704Z,2524.00
2022-09-05T11:40:08.376Z,2556.00
2022-09-05T11:40:38.214Z,2604.00
2022-09-05T11:41:25.347Z,2576.00
2022-09-05T11:42:23.970Z,2508.00
2022-09-05T11:43:23.897Z,2412.00
2022-09-05T11:44:25.095Z,2472.00
2022-09-05T11:45:23.753Z,2684.00
2022-09-05T11:46:23.702Z,2736.00
2022-09-05T11:47:30.039Z,2792.00
2022-09-05T11:48:23.587Z,2820.00
2022-09-05T11:49:23.472Z,2904.00
2022-09-05T11:50:23.397Z,2944.00
2022-09-05T11:51:26.062Z,3016.00
2022-09-05T11:52:23.253Z,3036.00
2022-09-05T11:53:23.185Z,3044.00
2022-09-05T11:54:23.112Z,3068.00
2022-09-05T11:55:23.043Z,3132.00
2022-09-05T11:56:27.988Z,3172.00
2022-09-05T11:57:33.437Z,3208.00
2022-09-05T11:58:43.591Z,3256.00
2022-09-05T11:59:33.422Z,3292.00
2022-09-05T12:00:31.283Z,3324.00
2022-09-05T12:01:42.419Z,3388.00
2022-09-05T12:02:23.222Z,3464.00
2022-09-05T12:03:57.222Z,3544.00
2022-09-05T12:04:22.405Z,3600.00
2022-09-05T12:05:48.477Z,3712.00
2022-09-05T12:06:22.295Z,4132.00
2022-09-05T12:07:29.850Z,5396.00
2022-09-05T12:08:22.125Z,7092.00
2022-09-05T12:09:24.438Z,8080.00
2022-09-05T12:10:45.999Z,8944.00
2022-09-05T12:11:21.929Z,9748.00
2022-09-05T12:12:38.605Z,10552.00
2022-09-05T12:13:24.504Z,11472.00
2022-09-05T12:14:25.765Z,12200.00
2022-09-05T12:15:21.638Z,12568.00
2022-09-05T12:16:26.545Z,13536.00
2022-09-05T12:17:35.532Z,14240.00
2022-09-05T12:18:24.161Z,14720.00
2022-09-05T12:19:22.972Z,14976.00
2022-09-05T12:20:21.942Z,15104.00
2022-09-05T12:21:21.235Z,15584.00
2022-09-05T12:22:23.589Z,15744.00
2022-09-05T12:23:39.916Z,16224.00
2022-09-05T12:25:25.516Z,16544.00
2022-09-05T12:26:30.770Z,16896.00
2022-09-05T12:27:40.396Z,16960.00
2022-09-05T12:27:41.541Z,17888.00
2022-09-05T12:29:27.476Z,18048.00
2022-09-05T12:29:34.076Z,18400.00
2022-09-05T12:30:20.655Z,19040.00
2022-09-05T12:32:36.518Z,18976.00
2022-09-05T12:33:52.332Z,18464.00
2022-09-05T12:36:02.754Z,18368.00
2022-09-05T12:36:06.804Z,18464.00